createdAt,value
2023-03-19T00:01:04.674Z,1.83
2023-03-19T00:03:37.371Z,1.83
2023-03-19T00:06:10.186Z,1.73
2023-03-19T00:08:42.857Z,2.00
2023-03-19T00:11:15.730Z,2.03
2023-03-19T00:13:48.375Z,1.77
2023-03-19T00:16:21.334Z,1.73
2023-03-19T00:18:55.006Z,1.87
2023-03-19T00:21:30.522Z,1.70
2023-03-19T00:24:03.909Z,1.53
2023-03-19T00:26:36.826Z,1.80
2023-03-19T00:29:09.914Z,2.00
2023-03-19T00:31:43.055Z,1.70
2023-03-19T00:34:18.840Z,1.70
2023-03-19T00:36:51.984Z,1.93
2023-03-19T00:39:24.863Z,1.90
2023-03-19T00:41:57.525Z,1.83
2023-03-19T00:44:30.576Z,1.90
2023-03-19T00:47:03.243Z,2.10
2023-03-19T00:49:36.828Z,1.80
2023-03-19T00:52:09.546Z,1.80
2023-03-19T00:54:42.290Z,2.10
2023-03-19T00:57:15.079Z,2.03
2023-03-19T00:59:48.177Z,2.00
2023-03-19T01:02:21.062Z,1.90
2023-03-19T01:04:54.010Z,1.73
2023-03-19T01:07:26.948Z,1.70
2023-03-19T01:09:59.754Z,1.63
2023-03-19T01:12:34.015Z,1.60
2023-03-19T01:15:08.737Z,1.70
2023-03-19T01:17:42.370Z,1.80
2023-03-19T01:20:18.643Z,1.90
2023-03-19T01:22:51.396Z,2.00
2023-03-19T01:25:24.653Z,1.60
2023-03-19T01:28:11.503Z,1.77
2023-03-19T01:30:45.911Z,1.97
2023-03-19T01:33:51.629Z,2.20
2023-03-19T01:36:47.816Z,2.10
2023-03-19T01:39:23.431Z,1.80
2023-03-19T01:42:00.512Z,1.80
2023-03-19T01:44:41.871Z,1.90
2023-03-19T01:47:44.879Z,1.50
2023-03-19T01:50:27.454Z,1.80
2023-03-19T01:53:19.542Z,1.70
2023-03-19T01:56:07.164Z,1.37
2023-03-19T01:59:22.081Z,1.40
2023-03-19T02:02:20.138Z,1.50
2023-03-19T02:04:58.496Z,1.40
2023-03-19T02:07:33.491Z,2.03
2023-03-19T02:10:10.283Z,1.97
2023-03-19T02:12:43.787Z,1.50
2023-03-19T02:15:16.784Z,1.63
2023-03-19T02:17:49.838Z,2.00
2023-03-19T02:20:30.862Z,1.80
2023-03-19T02:23:18.921Z,2.03
2023-03-19T02:26:03.897Z,2.00
2023-03-19T02:28:40.862Z,1.90
2023-03-19T02:31:14.784Z,1.40
2023-03-19T02:33:57.334Z,1.70
2023-03-19T02:36:44.169Z,1.60
2023-03-19T02:39:23.467Z,1.67
2023-03-19T02:41:58.469Z,1.37
2023-03-19T02:44:33.055Z,1.60
2023-03-19T02:47:06.136Z,1.60
2023-03-19T02:49:39.036Z,1.60
2023-03-19T02:52:12.172Z,1.37
2023-03-19T02:54:46.650Z,1.67
2023-03-19T02:57:19.364Z,1.20
2023-03-19T02:59:52.076Z,1.40
2023-03-19T03:02:25.816Z,1.10
2023-03-19T03:04:58.514Z,1.20
2023-03-19T03:07:31.679Z,1.40
2023-03-19T03:10:05.133Z,1.10
2023-03-19T03:12:38.717Z,1.07
2023-03-19T03:15:11.482Z,1.10
2023-03-19T03:17:45.568Z,1.23
2023-03-19T03:20:19.729Z,1.17
2023-03-19T03:22:53.509Z,1.10
2023-03-19T03:25:26.481Z,1.57
2023-03-19T03:27:59.807Z,1.10
2023-03-19T03:30:33.014Z,1.30
2023-03-19T03:33:07.191Z,1.00
2023-03-19T03:35:40.595Z,1.40
2023-03-19T03:38:13.384Z,1.43
2023-03-19T03:40:49.517Z,1.50
2023-03-19T03:43:22.333Z,1.50
2023-03-19T03:45:55.139Z,1.60
2023-03-19T03:48:28.436Z,1.30
2023-03-19T03:51:01.397Z,1.20
2023-03-19T03:53:34.766Z,1.40
2023-03-19T03:56:08.869Z,1.20
2023-03-19T03:58:42.172Z,1.40
2023-03-19T04:01:16.554Z,1.37
2023-03-19T04:03:52.325Z,1.50
2023-03-19T04:06:26.908Z,1.30
2023-03-19T04:09:19.880Z,1.20
2023-03-19T04:11:52.691Z,1.33
2023-03-19T04:14:26.187Z,1.30
2023-03-19T04:16:59.064Z,1.40
2023-03-19T04:19:32.575Z,1.30
2023-03-19T04:22:07.595Z,1.20
2023-03-19T04:24:41.273Z,1.30
2023-03-19T04:27:13.990Z,1.20
2023-03-19T04:29:47.028Z,1.37
2023-03-19T04:32:21.732Z,1.50
2023-03-19T04:34:54.485Z,1.53
2023-03-19T04:37:27.770Z,1.40
2023-03-19T04:40:00.968Z,1.50
2023-03-19T04:42:34.538Z,1.00
2023-03-19T04:45:27.446Z,1.40
2023-03-19T04:48:00.404Z,1.63
2023-03-19T04:50:33.759Z,1.60
2023-03-19T04:53:07.901Z,1.40
2023-03-19T04:55:41.610Z,1.30
2023-03-19T04:58:21.307Z,1.27
2023-03-19T05:01:01.961Z,1.37
2023-03-19T05:03:53.100Z,1.23
2023-03-19T05:06:27.172Z,1.60
2023-03-19T05:09:00.841Z,1.20
2023-03-19T05:11:33.655Z,1.30
2023-03-19T05:14:12.380Z,1.20
2023-03-19T05:17:00.505Z,1.60
2023-03-19T05:19:40.579Z,1.60
2023-03-19T05:22:15.306Z,1.30
2023-03-19T05:24:48.266Z,1.53
2023-03-19T05:27:21.024Z,1.50
2023-03-19T05:30:06.855Z,1.60
2023-03-19T05:32:46.607Z,1.40
2023-03-19T05:35:30.427Z,1.50
2023-03-19T05:38:03.731Z,1.60
2023-03-19T05:40:37.248Z,1.40
2023-03-19T05:43:23.872Z,1.27
2023-03-19T05:45:58.001Z,1.60
2023-03-19T05:48:34.798Z,1.30
2023-03-19T05:51:09.647Z,1.40
2023-03-19T05:53:47.067Z,1.70
2023-03-19T05:56:52.006Z,1.67
2023-03-19T05:59:40.504Z,1.77
2023-03-19T06:02:45.342Z,1.50
2023-03-19T06:05:29.455Z,1.63
2023-03-19T06:08:08.034Z,1.43
2023-03-19T06:10:56.250Z,1.20
2023-03-19T06:13:28.977Z,1.67
2023-03-19T06:16:06.673Z,1.33
2023-03-19T06:18:42.168Z,1.43
2023-03-19T06:21:17.960Z,1.37
2023-03-19T06:23:51.423Z,2.00
2023-03-19T06:26:28.916Z,1.40
2023-03-19T06:29:04.166Z,1.40
2023-03-19T06:31:39.580Z,1.40
2023-03-19T06:34:21.359Z,1.60
2023-03-19T06:36:54.307Z,1.10
2023-03-19T06:39:27.240Z,1.50
2023-03-19T06:42:00.331Z,1.30
2023-03-19T06:44:33.408Z,1.33
2023-03-19T06:47:07.050Z,1.53
2023-03-19T06:49:40.738Z,1.40
2023-03-19T06:52:13.663Z,1.80
2023-03-19T06:54:46.445Z,1.30
2023-03-19T06:57:19.529Z,1.47
2023-03-19T06:59:52.337Z,1.53
2023-03-19T07:02:25.405Z,1.57
2023-03-19T07:04:58.089Z,1.73
2023-03-19T07:07:31.614Z,1.77
2023-03-19T07:10:04.867Z,2.10
2023-03-19T07:12:37.601Z,1.53
2023-03-19T07:15:10.763Z,1.90
2023-03-19T07:17:46.129Z,1.87
2023-03-19T07:20:19.076Z,2.00
2023-03-19T07:22:52.185Z,2.13
2023-03-19T07:25:25.089Z,2.00
2023-03-19T07:27:57.880Z,2.20
2023-03-19T07:30:30.684Z,2.37
2023-03-19T07:33:03.812Z,1.87
2023-03-19T07:35:37.040Z,2.27
2023-03-19T07:38:10.294Z,2.17
2023-03-19T07:40:51.397Z,2.40
2023-03-19T07:43:32.032Z,2.73
2023-03-19T07:46:04.916Z,2.50
2023-03-19T07:48:37.724Z,2.30
2023-03-19T07:51:10.480Z,2.57
2023-03-19T07:53:43.243Z,2.30
2023-03-19T07:56:16.187Z,2.30
2023-03-19T07:58:49.021Z,1.83
2023-03-19T08:01:21.711Z,2.30
2023-03-19T08:03:54.457Z,2.40
2023-03-19T08:06:27.901Z,2.90
2023-03-19T08:09:00.800Z,2.47
2023-03-19T08:11:33.573Z,2.10
2023-03-19T08:14:06.480Z,2.17
2023-03-19T08:16:39.183Z,2.10
2023-03-19T08:19:12.349Z,2.30
2023-03-19T08:21:45.329Z,2.33
2023-03-19T08:24:18.755Z,2.80
2023-03-19T08:26:51.526Z,2.10
2023-03-19T08:29:26.382Z,2.33
2023-03-19T08:32:00.727Z,2.30
2023-03-19T08:34:33.588Z,2.07
2023-03-19T08:37:06.340Z,2.07
2023-03-19T08:39:39.370Z,1.97
2023-03-19T08:42:12.285Z,2.33
2023-03-19T08:44:45.318Z,2.20
2023-03-19T08:47:17.993Z,2.40
2023-03-19T08:49:51.918Z,2.63
2023-03-19T08:52:24.625Z,2.57
2023-03-19T08:54:57.486Z,2.17
2023-03-19T08:57:32.093Z,2.23
2023-03-19T09:00:05.729Z,2.33
2023-03-19T09:02:38.629Z,2.27
2023-03-19T09:05:11.827Z,2.50
2023-03-19T09:07:45.145Z,2.60
2023-03-19T09:10:17.960Z,2.30
2023-03-19T09:12:50.647Z,2.93
2023-03-19T09:15:23.359Z,2.70
2023-03-19T09:17:56.250Z,2.60
2023-03-19T09:20:28.917Z,2.80
2023-03-19T09:23:01.687Z,3.53
2023-03-19T09:25:34.740Z,2.70
2023-03-19T09:28:07.997Z,2.40
2023-03-19T09:30:40.885Z,2.80
2023-03-19T09:33:14.303Z,2.70
2023-03-19T09:35:52.669Z,2.95
2023-03-19T09:38:25.447Z,1.80
2023-03-19T09:41:14.243Z,1.30
2023-03-19T09:43:58.802Z,1.30
2023-03-19T09:46:40.056Z,1.43
2023-03-19T09:49:23.752Z,1.77
2023-03-19T09:52:20.803Z,1.20
2023-03-19T09:54:58.336Z,1.40
2023-03-19T09:57:33.236Z,1.20
2023-03-19T10:00:27.614Z,1.00
2023-03-19T10:03:31.813Z,0.93
2023-03-19T10:06:13.429Z,1.00
2023-03-19T10:09:03.055Z,1.00
2023-03-19T10:12:05.804Z,0.87
2023-03-19T10:15:17.283Z,0.80
2023-03-19T10:17:54.496Z,0.90
2023-03-19T10:20:32.958Z,0.80
2023-03-19T10:23:25.109Z,1.00
2023-03-19T10:26:02.180Z,0.90
2023-03-19T10:28:36.070Z,1.00
2023-03-19T10:31:26.004Z,1.00
2023-03-19T10:34:03.636Z,1.07
2023-03-19T10:36:36.928Z,1.07
2023-03-19T10:39:09.780Z,1.30
2023-03-19T10:41:42.476Z,1.00
2023-03-19T10:44:38.502Z,1.10
2023-03-19T10:47:13.988Z,1.60
2023-03-19T10:49:46.776Z,0.93
2023-03-19T10:52:24.520Z,1.37
2023-03-19T10:55:04.958Z,1.03
2023-03-19T10:57:42.218Z,1.00
2023-03-19T11:00:22.540Z,1.30
2023-03-19T11:02:56.232Z,1.50
2023-03-19T11:05:34.284Z,1.20
2023-03-19T11:08:32.798Z,1.10
2023-03-19T11:11:43.659Z,1.23
2023-03-19T11:14:29.352Z,0.93
2023-03-19T11:17:17.220Z,0.90
2023-03-19T11:19:55.014Z,1.00
2023-03-19T11:22:33.497Z,1.00
2023-03-19T11:25:20.240Z,1.00
2023-03-19T11:28:02.258Z,0.80
2023-03-19T11:31:23.593Z,0.77
2023-03-19T11:34:30.526Z,0.70
2023-03-19T11:37:14.821Z,0.70
2023-03-19T11:39:58.999Z,0.60
2023-03-19T11:43:00.346Z,0.80
2023-03-19T11:45:55.576Z,0.70
2023-03-19T11:48:34.955Z,0.70
2023-03-19T11:51:13.707Z,0.77
2023-03-19T11:54:04.531Z,1.00
2023-03-19T11:56:48.664Z,0.80
2023-03-19T11:59:25.532Z,3.97
2023-03-19T12:02:16.799Z,1.50
2023-03-19T12:04:56.294Z,0.80
2023-03-19T12:07:52.227Z,0.90
2023-03-19T12:10:37.405Z,1.10
2023-03-19T12:13:39.532Z,1.40
2023-03-19T12:16:25.549Z,1.10
2023-03-19T12:19:19.463Z,1.30
2023-03-19T12:22:07.937Z,1.50
2023-03-19T12:25:02.378Z,1.40
2023-03-19T12:27:47.591Z,1.60
2023-03-19T12:30:36.331Z,1.40
2023-03-19T12:33:23.800Z,1.40
2023-03-19T12:35:58.905Z,1.37
2023-03-19T12:38:41.594Z,1.40
2023-03-19T12:41:24.782Z,1.20
2023-03-19T12:44:19.284Z,1.20
2023-03-19T12:47:22.248Z,1.50
2023-03-19T12:49:58.416Z,1.20
2023-03-19T12:52:31.155Z,1.30
2023-03-19T12:55:16.205Z,1.73
2023-03-19T12:57:57.099Z,1.03
2023-03-19T13:00:44.911Z,1.10
2023-03-19T13:03:35.730Z,1.00
2023-03-19T13:06:15.873Z,1.00
2023-03-19T13:09:11.928Z,1.60
2023-03-19T13:11:58.600Z,1.30
2023-03-19T13:14:43.471Z,1.20
2023-03-19T13:17:31.919Z,1.00
2023-03-19T13:20:30.788Z,1.00
2023-03-19T13:23:05.891Z,1.17
2023-03-19T13:25:42.288Z,1.20
2023-03-19T13:28:31.732Z,1.10
2023-03-19T13:31:26.050Z,0.90
2023-03-19T13:34:07.788Z,0.93
2023-03-19T13:36:41.490Z,0.93
2023-03-19T13:39:21.029Z,0.90
2023-03-19T13:42:17.836Z,1.00
2023-03-19T13:45:03.466Z,0.90
2023-03-19T13:47:39.377Z,0.90
2023-03-19T13:50:29.279Z,1.10
2023-03-19T13:53:34.499Z,0.93
2023-03-19T13:56:26.237Z,1.00
2023-03-19T13:59:24.162Z,0.90
2023-03-19T14:01:57.971Z,0.70
2023-03-19T14:04:33.065Z,0.60
2023-03-19T14:07:22.164Z,0.40
2023-03-19T14:09:58.139Z,0.23
2023-03-19T14:12:39.904Z,0.40
2023-03-19T14:15:21.284Z,1.70
2023-03-19T14:17:59.261Z,0.70
2023-03-19T14:20:40.770Z,0.50
2023-03-19T14:23:23.853Z,0.40
2023-03-19T14:26:28.758Z,0.60
2023-03-19T14:29:13.519Z,0.33
2023-03-19T14:31:53.320Z,0.50
2023-03-19T14:34:43.232Z,0.40
2023-03-19T14:37:49.779Z,0.30
2023-03-19T14:40:44.871Z,0.30
2023-03-19T14:43:38.931Z,0.40
2023-03-19T14:46:33.426Z,0.40
2023-03-19T14:49:27.886Z,0.40
2023-03-19T14:52:23.207Z,0.30
2023-03-19T14:55:01.226Z,0.30
2023-03-19T14:57:35.668Z,0.40
2023-03-19T15:00:15.834Z,0.50
2023-03-19T15:02:52.686Z,0.43
2023-03-19T15:05:34.033Z,0.70
2023-03-19T15:08:13.044Z,0.70
2023-03-19T15:10:55.369Z,1.00
2023-03-19T15:14:12.930Z,1.07
2023-03-19T15:17:09.501Z,0.90
2023-03-19T15:19:42.963Z,0.60
2023-03-19T15:22:20.801Z,0.63
2023-03-19T15:24:54.002Z,0.50
2023-03-19T15:27:27.532Z,0.40
2023-03-19T15:30:12.929Z,0.50
2023-03-19T15:32:56.433Z,0.40
2023-03-19T15:35:40.371Z,0.50
2023-03-19T15:38:16.882Z,0.40
2023-03-19T15:40:50.044Z,1.10
2023-03-19T15:43:24.228Z,0.50
2023-03-19T15:45:57.614Z,0.50
2023-03-19T15:48:39.658Z,0.40
2023-03-19T15:51:14.678Z,0.43
2023-03-19T15:53:48.276Z,0.50
2023-03-19T15:56:21.462Z,0.60
2023-03-19T15:58:57.894Z,0.70
2023-03-19T16:01:33.794Z,0.50
2023-03-19T16:04:10.916Z,0.53
2023-03-19T16:06:49.589Z,0.70
2023-03-19T16:09:29.437Z,0.73
2023-03-19T16:12:02.393Z,0.50
2023-03-19T16:14:41.838Z,0.50
2023-03-19T16:17:16.890Z,0.60
2023-03-19T16:19:51.864Z,0.60
2023-03-19T16:22:28.999Z,0.60
2023-03-19T16:25:06.743Z,0.53
2023-03-19T16:27:40.684Z,0.60
2023-03-19T16:30:16.478Z,0.50
2023-03-19T16:33:00.560Z,0.47
2023-03-19T16:35:36.515Z,0.60
2023-03-19T16:38:14.943Z,0.60
2023-03-19T16:41:18.479Z,0.57
2023-03-19T16:43:53.329Z,0.50
2023-03-19T16:46:26.404Z,0.60
2023-03-19T16:48:59.267Z,0.83
2023-03-19T16:51:32.316Z,0.70
2023-03-19T16:54:05.466Z,0.70
2023-03-19T16:56:38.440Z,0.70
2023-03-19T16:59:21.575Z,0.80
2023-03-19T17:01:54.476Z,0.80
2023-03-19T17:04:28.381Z,0.70
2023-03-19T17:07:01.223Z,0.70
2023-03-19T17:09:34.120Z,0.70
2023-03-19T17:12:13.072Z,0.63
2023-03-19T17:14:48.483Z,0.80
2023-03-19T17:17:21.766Z,0.90
2023-03-19T17:19:54.450Z,0.83
2023-03-19T17:22:27.617Z,0.70
2023-03-19T17:25:00.535Z,0.90
2023-03-19T17:27:34.743Z,0.90
2023-03-19T17:30:08.343Z,1.07
2023-03-19T17:32:45.420Z,0.80
2023-03-19T17:35:22.318Z,0.77
2023-03-19T17:37:55.174Z,0.70
2023-03-19T17:40:28.274Z,0.70
2023-03-19T17:43:01.169Z,0.60
2023-03-19T17:45:33.905Z,0.88
2023-03-19T17:48:06.611Z,0.80
2023-03-19T17:50:39.406Z,0.70
2023-03-19T17:53:14.323Z,0.70
2023-03-19T17:55:47.122Z,0.70
2023-03-19T17:58:22.374Z,0.80
2023-03-19T18:00:55.302Z,0.90
2023-03-19T18:03:31.724Z,0.87
2023-03-19T18:06:06.878Z,0.70
2023-03-19T18:08:39.497Z,0.70
2023-03-19T18:11:12.851Z,0.87
2023-03-19T18:13:46.057Z,0.90
2023-03-19T18:16:30.975Z,0.70
2023-03-19T18:19:11.923Z,7.10
2023-03-19T18:21:44.670Z,1.60
2023-03-19T18:24:17.307Z,1.97
2023-03-19T18:26:50.367Z,1.80
2023-03-19T18:29:23.094Z,1.17
2023-03-19T18:32:04.349Z,0.97
2023-03-19T18:34:37.163Z,0.80
2023-03-19T18:37:16.643Z,1.10
2023-03-19T18:39:49.997Z,0.73
2023-03-19T18:42:23.486Z,0.80
2023-03-19T18:44:56.233Z,0.63
2023-03-19T18:47:28.982Z,1.20
2023-03-19T18:50:01.892Z,0.80
2023-03-19T18:52:34.531Z,0.67
2023-03-19T18:55:07.554Z,0.70
2023-03-19T18:57:52.565Z,0.70
2023-03-19T19:00:34.079Z,0.63
2023-03-19T19:03:07.567Z,0.60
2023-03-19T19:05:40.489Z,0.83
2023-03-19T19:08:19.881Z,0.83
2023-03-19T19:10:57.964Z,0.80
2023-03-19T19:13:46.223Z,0.80
2023-03-19T19:16:37.994Z,0.90
2023-03-19T19:19:20.195Z,1.17
2023-03-19T19:21:53.306Z,0.90
2023-03-19T19:24:26.082Z,1.30
2023-03-19T19:27:01.379Z,1.07
2023-03-19T19:29:34.425Z,1.57
2023-03-19T19:32:26.442Z,1.00
2023-03-19T19:34:59.188Z,1.00
2023-03-19T19:37:31.904Z,1.20
2023-03-19T19:40:05.028Z,1.50
2023-03-19T19:42:37.713Z,1.50
2023-03-19T19:45:28.483Z,1.00
2023-03-19T19:48:01.194Z,1.40
2023-03-19T19:50:34.372Z,1.10
2023-03-19T19:53:07.211Z,1.20
2023-03-19T19:55:40.441Z,1.07
2023-03-19T19:58:26.678Z,1.60
2023-03-19T20:01:03.905Z,1.10
2023-03-19T20:03:37.828Z,0.97
2023-03-19T20:06:10.654Z,1.10
2023-03-19T20:08:44.042Z,1.10
2023-03-19T20:11:19.456Z,0.90
2023-03-19T20:13:55.365Z,0.90
2023-03-19T20:16:28.283Z,1.20
2023-03-19T20:19:01.397Z,1.20
2023-03-19T20:21:34.108Z,1.27
2023-03-19T20:24:07.215Z,1.30
2023-03-19T20:26:40.357Z,1.27
2023-03-19T20:29:15.828Z,1.30
2023-03-19T20:31:48.576Z,1.33
2023-03-19T20:34:38.260Z,1.53
2023-03-19T20:37:11.474Z,1.30
2023-03-19T20:39:44.378Z,1.40
2023-03-19T20:42:17.525Z,1.20
2023-03-19T20:44:54.541Z,1.23
2023-03-19T20:47:28.480Z,1.60
2023-03-19T20:50:01.835Z,1.50
2023-03-19T20:52:34.580Z,1.40
2023-03-19T20:55:08.800Z,1.40
2023-03-19T20:57:42.345Z,1.30
2023-03-19T21:00:21.500Z,1.20
2023-03-19T21:02:56.342Z,1.80
2023-03-19T21:05:36.584Z,1.60
2023-03-19T21:08:19.533Z,1.43
2023-03-19T21:10:53.086Z,1.40
2023-03-19T21:13:26.143Z,1.50
2023-03-19T21:15:59.560Z,1.43
2023-03-19T21:18:32.306Z,1.37
2023-03-19T21:21:05.359Z,1.20
2023-03-19T21:23:38.632Z,1.33
2023-03-19T21:26:15.709Z,1.30
2023-03-19T21:28:51.683Z,1.30
2023-03-19T21:31:24.554Z,1.40
2023-03-19T21:33:58.561Z,1.30
2023-03-19T21:36:32.072Z,1.80
2023-03-19T21:39:04.777Z,1.57
2023-03-19T21:41:37.830Z,1.80
2023-03-19T21:44:14.962Z,1.60
2023-03-19T21:46:48.632Z,2.07
2023-03-19T21:49:21.826Z,2.13
2023-03-19T21:51:56.987Z,1.83
2023-03-19T21:54:29.675Z,1.70
2023-03-19T21:57:02.514Z,1.60
2023-03-19T21:59:35.670Z,2.00
2023-03-19T22:02:23.199Z,1.73
2023-03-19T22:04:55.844Z,1.90
2023-03-19T22:07:28.584Z,2.20
2023-03-19T22:10:01.428Z,1.70
2023-03-19T22:12:37.384Z,1.93
2023-03-19T22:15:29.522Z,1.97
2023-03-19T22:18:04.968Z,2.03
2023-03-19T22:20:37.824Z,1.60
2023-03-19T22:23:11.758Z,1.77
2023-03-19T22:25:46.437Z,2.10
2023-03-19T22:28:34.362Z,2.07
2023-03-19T22:31:07.119Z,1.80
2023-03-19T22:33:39.931Z,1.77
2023-03-19T22:36:14.783Z,2.17
2023-03-19T22:38:48.913Z,2.23
2023-03-19T22:41:33.897Z,2.03
2023-03-19T22:44:19.328Z,2.00
2023-03-19T22:46:52.989Z,2.07
2023-03-19T22:49:28.180Z,2.20
2023-03-19T22:52:01.673Z,2.17
2023-03-19T22:54:34.460Z,2.13
2023-03-19T22:57:11.320Z,2.00
2023-03-19T22:59:44.556Z,2.40
2023-03-19T23:02:17.889Z,2.30
2023-03-19T23:04:50.653Z,2.40
2023-03-19T23:07:23.306Z,2.13
2023-03-19T23:09:56.860Z,2.33
2023-03-19T23:12:29.542Z,2.70
2023-03-19T23:15:02.278Z,2.33
2023-03-19T23:17:35.306Z,2.70
2023-03-19T23:20:20.377Z,2.70
2023-03-19T23:22:53.764Z,3.40
2023-03-19T23:25:28.681Z,2.50
2023-03-19T23:28:02.676Z,2.10
2023-03-19T23:30:35.376Z,2.40
2023-03-19T23:33:10.856Z,2.33
2023-03-19T23:35:44.717Z,2.60
2023-03-19T23:38:18.291Z,2.63
2023-03-19T23:40:51.703Z,2.50
2023-03-19T23:43:29.070Z,2.80
2023-03-19T23:46:02.353Z,2.63
2023-03-19T23:48:39.065Z,2.10
2023-03-19T23:51:15.807Z,2.13
2023-03-19T23:53:48.802Z,2.10
2023-03-19T23:56:25.298Z,2.57
2023-03-19T23:59:00.691Z,2.57
